sensor_id;sensor_type;location;lat;lon;timestamp;pressure;altitude;pressure_sealevel;temperature;humidity
77706;BME280;66874;45.274;5.880;2024-03-08T00:00:16;98541.47;;;4.23;59.63
77706;BME280;66874;45.274;5.880;2024-03-08T00:02:44;98551.00;;;4.21;59.83
77706;BME280;66874;45.274;5.880;2024-03-08T00:05:10;98548.41;;;4.18;59.96
77706;BME280;66874;45.274;5.880;2024-03-08T00:07:37;98546.69;;;4.10;60.02
77706;BME280;66874;45.274;5.880;2024-03-08T00:10:06;98550.16;;;4.05;60.20
77706;BME280;66874;45.274;5.880;2024-03-08T00:12:39;98557.94;;;4.00;60.34
77706;BME280;66874;45.274;5.880;2024-03-08T00:15:11;98558.78;;;3.95;60.68
77706;BME280;66874;45.274;5.880;2024-03-08T00:17:39;98557.06;;;3.90;60.93
77706;BME280;66874;45.274;5.880;2024-03-08T00:20:06;98546.75;;;3.89;60.80
77706;BME280;66874;45.274;5.880;2024-03-08T00:22:34;98540.72;;;3.88;61.05
77706;BME280;66874;45.274;5.880;2024-03-08T00:24:59;98540.72;;;3.88;60.85
77706;BME280;66874;45.274;5.880;2024-03-08T00:27:25;98542.41;;;3.91;61.18
77706;BME280;66874;45.274;5.880;2024-03-08T00:29:50;98545.84;;;3.91;61.05
77706;BME280;66874;45.274;5.880;2024-03-08T00:32:15;98552.78;;;3.85;61.02
77706;BME280;66874;45.274;5.880;2024-03-08T00:34:42;98546.72;;;3.80;61.39
77706;BME280;66874;45.274;5.880;2024-03-08T00:37:08;98542.41;;;3.80;61.29
77706;BME280;66874;45.274;5.880;2024-03-08T00:39:34;98540.72;;;3.78;61.45
77706;BME280;66874;45.274;5.880;2024-03-08T00:41:59;98537.25;;;3.76;61.37
77706;BME280;66874;45.274;5.880;2024-03-08T00:44:25;98533.78;;;3.75;61.59
77706;BME280;66874;45.274;5.880;2024-03-08T00:46:50;98529.50;;;3.74;61.43
77706;BME280;66874;45.274;5.880;2024-03-08T00:49:15;98521.72;;;3.74;61.82
77706;BME280;66874;45.274;5.880;2024-03-08T00:51:42;98526.06;;;3.74;61.77
77706;BME280;66874;45.274;5.880;2024-03-08T00:54:08;98526.88;;;3.73;61.90
77706;BME280;66874;45.274;5.880;2024-03-08T00:56:34;98513.97;;;3.66;61.88
77706;BME280;66874;45.274;5.880;2024-03-08T00:59:00;98515.69;;;3.63;62.23
77706;BME280;66874;45.274;5.880;2024-03-08T01:01:27;98516.56;;;3.60;62.40
77706;BME280;66874;45.274;5.880;2024-03-08T01:03:53;98511.41;;;3.54;62.16
77706;BME280;66874;45.274;5.880;2024-03-08T01:06:18;98519.13;;;3.50;62.33
77706;BME280;66874;45.274;5.880;2024-03-08T01:08:44;98502.75;;;3.45;62.58
77706;BME280;66874;45.274;5.880;2024-03-08T01:11:10;98505.34;;;3.40;62.68
77706;BME280;66874;45.274;5.880;2024-03-08T01:13:36;98503.63;;;3.40;62.65
77706;BME280;66874;45.274;5.880;2024-03-08T01:16:02;98496.72;;;3.41;62.69
77706;BME280;66874;45.274;5.880;2024-03-08T01:18:29;98501.03;;;3.42;62.71
77706;BME280;66874;45.274;5.880;2024-03-08T01:20:54;98501.03;;;3.40;62.89
77706;BME280;66874;45.274;5.880;2024-03-08T01:23:19;98496.75;;;3.39;62.84
77706;BME280;66874;45.274;5.880;2024-03-08T01:25:45;98497.63;;;3.38;62.89
77706;BME280;66874;45.274;5.880;2024-03-08T01:28:10;98488.09;;;3.37;63.09
77706;BME280;66874;45.274;5.880;2024-03-08T01:30:35;98487.25;;;3.35;63.11
77706;BME280;66874;45.274;5.880;2024-03-08T01:33:02;98485.50;;;3.30;63.41
77706;BME280;66874;45.274;5.880;2024-03-08T01:35:28;98478.63;;;3.24;63.20
77706;BME280;66874;45.274;5.880;2024-03-08T01:37:53;98482.06;;;3.22;63.51
77706;BME280;66874;45.274;5.880;2024-03-08T01:40:19;98471.75;;;3.20;63.36
77706;BME280;66874;45.274;5.880;2024-03-08T01:42:44;98468.28;;;3.15;63.66
77706;BME280;66874;45.274;5.880;2024-03-08T01:45:10;98474.31;;;3.14;63.66
77706;BME280;66874;45.274;5.880;2024-03-08T01:47:36;98470.00;;;3.14;63.77
77706;BME280;66874;45.274;5.880;2024-03-08T01:50:02;98467.44;;;3.13;63.83
77706;BME280;66874;45.274;5.880;2024-03-08T01:52:29;98464.84;;;3.11;63.90
77706;BME280;66874;45.274;5.880;2024-03-08T01:54:58;98459.69;;;3.08;64.06
77706;BME280;66874;45.274;5.880;2024-03-08T01:57:26;98459.69;;;3.08;64.00
77706;BME280;66874;45.274;5.880;2024-03-08T01:59:52;98457.94;;;3.07;64.06
77706;BME280;66874;45.274;5.880;2024-03-08T02:02:20;98466.53;;;3.06;64.08
77706;BME280;66874;45.274;5.880;2024-03-08T02:04:46;98448.47;;;3.05;64.15
77706;BME280;66874;45.274;5.880;2024-03-08T02:07:12;98448.47;;;3.00;64.19
77706;BME280;66874;45.274;5.880;2024-03-08T02:09:38;98438.97;;;2.99;64.43
77706;BME280;66874;45.274;5.880;2024-03-08T02:12:05;98432.09;;;2.98;64.35
77706;BME280;66874;45.274;5.880;2024-03-08T02:14:30;98435.53;;;2.92;64.61
77706;BME280;66874;45.274;5.880;2024-03-08T02:17:00;98426.91;;;2.84;64.84
77706;BME280;66874;45.274;5.880;2024-03-08T02:19:25;98433.81;;;2.81;65.04
77706;BME280;66874;45.274;5.880;2024-03-08T02:21:51;98432.06;;;2.77;64.94
77706;BME280;66874;45.274;5.880;2024-03-08T02:24:16;98435.50;;;2.73;64.99
77706;BME280;66874;45.274;5.880;2024-03-08T02:26:41;98421.72;;;2.72;65.28
77706;BME280;66874;45.274;5.880;2024-03-08T02:29:09;98418.25;;;2.68;65.31
77706;BME280;66874;45.274;5.880;2024-03-08T02:31:34;98414.81;;;2.65;65.33
77706;BME280;66874;45.274;5.880;2024-03-08T02:33:59;98413.97;;;2.67;65.49
77706;BME280;66874;45.274;5.880;2024-03-08T02:36:25;98410.53;;;2.67;65.48
77706;BME280;66874;45.274;5.880;2024-03-08T02:38:50;98405.38;;;2.65;65.46
77706;BME280;66874;45.274;5.880;2024-03-08T02:41:15;98401.06;;;2.63;65.67
77706;BME280;66874;45.274;5.880;2024-03-08T02:43:41;98399.34;;;2.62;66.06
77706;BME280;66874;45.274;5.880;2024-03-08T02:46:06;98405.38;;;2.65;66.66
77706;BME280;66874;45.274;5.880;2024-03-08T02:48:32;98398.47;;;2.69;66.42
77706;BME280;66874;45.274;5.880;2024-03-08T02:50:57;98395.88;;;2.69;66.06
77706;BME280;66874;45.274;5.880;2024-03-08T02:53:22;98389.00;;;2.68;66.54
77706;BME280;66874;45.274;5.880;2024-03-08T02:55:49;98390.72;;;2.67;66.58
77706;BME280;66874;45.274;5.880;2024-03-08T02:58:15;98390.75;;;2.66;66.60
77706;BME280;66874;45.274;5.880;2024-03-08T03:00:40;98394.16;;;2.68;66.68
77706;BME280;66874;45.274;5.880;2024-03-08T03:03:06;98393.28;;;2.69;66.82
77706;BME280;66874;45.274;5.880;2024-03-08T03:05:32;98388.13;;;2.69;66.72
77706;BME280;66874;45.274;5.880;2024-03-08T03:07:57;98389.00;;;2.71;66.90
77706;BME280;66874;45.274;5.880;2024-03-08T03:10:26;98382.13;;;2.72;66.76
77706;BME280;66874;45.274;5.880;2024-03-08T03:12:51;98377.81;;;2.69;67.15
77706;BME280;66874;45.274;5.880;2024-03-08T03:15:18;98371.81;;;2.70;66.95
77706;BME280;66874;45.274;5.880;2024-03-08T03:17:50;98372.66;;;2.72;67.04
77706;BME280;66874;45.274;5.880;2024-03-08T03:20:18;98363.19;;;2.71;67.24
77706;BME280;66874;45.274;5.880;2024-03-08T03:22:58;98371.78;;;2.72;67.36
77706;BME280;66874;45.274;5.880;2024-03-08T03:25:26;98371.78;;;2.72;67.25
77706;BME280;66874;45.274;5.880;2024-03-08T03:27:54;98364.03;;;2.72;67.44
77706;BME280;66874;45.274;5.880;2024-03-08T03:30:23;98361.47;;;2.70;67.27
77706;BME280;66874;45.274;5.880;2024-03-08T03:32:51;98357.16;;;2.72;67.37
77706;BME280;66874;45.274;5.880;2024-03-08T03:35:17;98354.59;;;2.71;67.71
77706;BME280;66874;45.274;5.880;2024-03-08T03:37:43;98350.25;;;2.68;67.68
77706;BME280;66874;45.274;5.880;2024-03-08T03:40:16;98351.13;;;2.64;68.03
77706;BME280;66874;45.274;5.880;2024-03-08T03:42:43;98339.09;;;2.58;68.37
77706;BME280;66874;45.274;5.880;2024-03-08T03:45:10;98351.13;;;2.58;68.14
77706;BME280;66874;45.274;5.880;2024-03-08T03:47:36;98339.09;;;2.61;67.88
77706;BME280;66874;45.274;5.880;2024-03-08T03:50:04;98328.75;;;2.64;68.09
77706;BME280;66874;45.274;5.880;2024-03-08T03:52:29;98331.34;;;2.66;68.21
77706;BME280;66874;45.274;5.880;2024-03-08T03:54:55;98333.06;;;2.67;68.20
77706;BME280;66874;45.274;5.880;2024-03-08T03:57:22;98334.78;;;2.68;68.47
77706;BME280;66874;45.274;5.880;2024-03-08T03:59:48;98330.47;;;2.67;68.41
77706;BME280;66874;45.274;5.880;2024-03-08T04:02:13;98325.31;;;2.68;68.59
77706;BME280;66874;45.274;5.880;2024-03-08T04:04:40;98327.91;;;2.67;68.40
77706;BME280;66874;45.274;5.880;2024-03-08T04:07:05;98322.75;;;2.65;69.00
77706;BME280;66874;45.274;5.880;2024-03-08T04:09:31;98318.44;;;2.66;69.17
77706;BME280;66874;45.274;5.880;2024-03-08T04:11:56;98324.44;;;2.65;69.29
77706;BME280;66874;45.274;5.880;2024-03-08T04:14:23;98324.44;;;2.63;69.66
77706;BME280;66874;45.274;5.880;2024-03-08T04:16:48;98323.56;;;2.64;69.57
77706;BME280;66874;45.274;5.880;2024-03-08T04:19:14;98325.31;;;2.65;69.45
77706;BME280;66874;45.274;5.880;2024-03-08T04:21:39;98312.41;;;2.67;69.52
77706;BME280;66874;45.274;5.880;2024-03-08T04:24:04;98310.69;;;2.67;69.58
77706;BME280;66874;45.274;5.880;2024-03-08T04:26:31;98311.53;;;2.71;69.57
77706;BME280;66874;45.274;5.880;2024-03-08T04:28:56;98316.69;;;2.73;70.01
77706;BME280;66874;45.274;5.880;2024-03-08T04:31:22;98308.97;;;2.74;70.29
77706;BME280;66874;45.274;5.880;2024-03-08T04:33:47;98303.78;;;2.76;69.91
77706;BME280;66874;45.274;5.880;2024-03-08T04:36:13;98299.50;;;2.75;69.95
77706;BME280;66874;45.274;5.880;2024-03-08T04:38:39;98302.09;;;2.73;70.22
77706;BME280;66874;45.274;5.880;2024-03-08T04:41:06;98296.03;;;2.73;70.46
77706;BME280;66874;45.274;5.880;2024-03-08T04:43:32;98300.34;;;2.72;70.46
77706;BME280;66874;45.274;5.880;2024-03-08T04:45:57;98302.91;;;2.69;70.36
77706;BME280;66874;45.274;5.880;2024-03-08T04:48:23;98299.50;;;2.70;70.57
77706;BME280;66874;45.274;5.880;2024-03-08T04:50:48;98294.34;;;2.70;70.58
77706;BME280;66874;45.274;5.880;2024-03-08T04:53:14;98286.56;;;2.67;70.55
77706;BME280;66874;45.274;5.880;2024-03-08T04:55:39;98291.72;;;2.64;70.70
77706;BME280;66874;45.274;5.880;2024-03-08T04:58:05;98283.16;;;2.62;70.90
77706;BME280;66874;45.274;5.880;2024-03-08T05:00:33;98283.97;;;2.61;71.12
77706;BME280;66874;45.274;5.880;2024-03-08T05:02:58;98288.31;;;2.62;71.28
77706;BME280;66874;45.274;5.880;2024-03-08T05:05:24;98284.88;;;2.61;71.19
77706;BME280;66874;45.274;5.880;2024-03-08T05:07:50;98283.97;;;2.61;71.47
77706;BME280;66874;45.274;5.880;2024-03-08T05:10:15;98279.72;;;2.61;71.60
77706;BME280;66874;45.274;5.880;2024-03-08T05:12:43;98277.13;;;2.61;71.49
77706;BME280;66874;45.274;5.880;2024-03-08T05:15:08;98274.53;;;2.58;71.74
77706;BME280;66874;45.274;5.880;2024-03-08T05:17:34;98273.69;;;2.58;71.86
77706;BME280;66874;45.274;5.880;2024-03-08T05:19:59;98264.19;;;2.57;72.18
77706;BME280;66874;45.274;5.880;2024-03-08T05:22:24;98270.22;;;2.59;72.20
77706;BME280;66874;45.274;5.880;2024-03-08T05:24:51;98271.09;;;2.58;71.94
77706;BME280;66874;45.274;5.880;2024-03-08T05:27:16;98267.63;;;2.60;71.89
77706;BME280;66874;45.274;5.880;2024-03-08T05:29:41;98262.50;;;2.62;71.89
77706;BME280;66874;45.274;5.880;2024-03-08T05:32:07;98261.63;;;2.61;71.97
77706;BME280;66874;45.274;5.880;2024-03-08T05:34:32;98260.75;;;2.59;72.05
77706;BME280;66874;45.274;5.880;2024-03-08T05:36:58;98258.19;;;2.59;72.04
77706;BME280;66874;45.274;5.880;2024-03-08T05:39:24;98271.97;;;2.58;72.23
77706;BME280;66874;45.274;5.880;2024-03-08T05:41:50;98253.00;;;2.59;72.22
77706;BME280;66874;45.274;5.880;2024-03-08T05:44:15;98259.88;;;2.60;72.24
77706;BME280;66874;45.274;5.880;2024-03-08T05:46:44;98247.00;;;2.62;71.87
77706;BME280;66874;45.274;5.880;2024-03-08T05:49:11;98250.41;;;2.61;72.08
77706;BME280;66874;45.274;5.880;2024-03-08T05:51:38;98244.41;;;2.59;72.05
77706;BME280;66874;45.274;5.880;2024-03-08T05:54:08;98245.25;;;2.59;72.18
77706;BME280;66874;45.274;5.880;2024-03-08T05:56:35;98243.56;;;2.58;72.33
77706;BME280;66874;45.274;5.880;2024-03-08T05:59:01;98244.41;;;2.59;72.35
77706;BME280;66874;45.274;5.880;2024-03-08T06:01:27;98259.91;;;2.62;72.41
77706;BME280;66874;45.274;5.880;2024-03-08T06:03:53;98255.59;;;2.62;72.17
77706;BME280;66874;45.274;5.880;2024-03-08T06:06:20;98251.28;;;2.64;72.24
77706;BME280;66874;45.274;5.880;2024-03-08T06:08:47;98258.16;;;2.67;71.86
77706;BME280;66874;45.274;5.880;2024-03-08T06:11:14;98258.16;;;2.67;72.07
77706;BME280;66874;45.274;5.880;2024-03-08T06:13:40;98260.75;;;2.68;71.92
77706;BME280;66874;45.274;5.880;2024-03-08T06:16:05;98266.75;;;2.69;72.26
77706;BME280;66874;45.274;5.880;2024-03-08T06:18:34;98261.59;;;2.69;72.24
77706;BME280;66874;45.274;5.880;2024-03-08T06:21:02;98255.59;;;2.72;72.29
77706;BME280;66874;45.274;5.880;2024-03-08T06:23:27;98259.88;;;2.73;72.42
77706;BME280;66874;45.274;5.880;2024-03-08T06:25:53;98262.47;;;2.79;72.41
77706;BME280;66874;45.274;5.880;2024-03-08T06:28:19;98265.03;;;2.91;72.67
77706;BME280;66874;45.274;5.880;2024-03-08T06:30:45;98266.72;;;3.00;72.91
77706;BME280;66874;45.274;5.880;2024-03-08T06:33:10;98269.31;;;3.09;72.79
77706;BME280;66874;45.274;5.880;2024-03-08T06:35:36;98283.09;;;3.15;72.36
77706;BME280;66874;45.274;5.880;2024-03-08T06:38:04;98272.72;;;3.22;72.42
77706;BME280;66874;45.274;5.880;2024-03-08T06:40:29;98276.16;;;3.24;72.36
77706;BME280;66874;45.274;5.880;2024-03-08T06:42:54;98272.72;;;3.20;72.36
77706;BME280;66874;45.274;5.880;2024-03-08T06:45:20;98266.69;;;3.18;72.38
77706;BME280;66874;45.274;5.880;2024-03-08T06:47:46;98259.81;;;3.17;72.57
77706;BME280;66874;45.274;5.880;2024-03-08T06:50:12;98264.09;;;3.18;72.64
77706;BME280;66874;45.274;5.880;2024-03-08T06:52:38;98271.00;;;3.22;72.27
77706;BME280;66874;45.274;5.880;2024-03-08T06:55:04;98263.25;;;3.24;72.48
77706;BME280;66874;45.274;5.880;2024-03-08T06:57:31;98255.50;;;3.24;72.49
77706;BME280;66874;45.274;5.880;2024-03-08T06:59:56;98264.09;;;3.23;72.53
77706;BME280;66874;45.274;5.880;2024-03-08T07:02:25;98257.19;;;3.26;72.42
77706;BME280;66874;45.274;5.880;2024-03-08T07:04:51;98246.88;;;3.31;72.56
77706;BME280;66874;45.274;5.880;2024-03-08T07:07:18;98246.00;;;3.32;72.50
77706;BME280;66874;45.274;5.880;2024-03-08T07:09:45;98235.63;;;3.33;72.77
77706;BME280;66874;45.274;5.880;2024-03-08T07:12:11;98227.88;;;3.33;72.93
77706;BME280;66874;45.274;5.880;2024-03-08T07:14:38;98227.88;;;3.35;72.83
77706;BME280;66874;45.274;5.880;2024-03-08T07:17:07;98230.44;;;3.41;72.45
77706;BME280;66874;45.274;5.880;2024-03-08T07:19:36;98235.56;;;3.49;72.82
77706;BME280;66874;45.274;5.880;2024-03-08T07:22:04;98230.38;;;3.56;72.35
77706;BME280;66874;45.274;5.880;2024-03-08T07:24:29;98238.09;;;3.65;72.30
77706;BME280;66874;45.274;5.880;2024-03-08T07:27:05;98238.91;;;3.74;72.30
77706;BME280;66874;45.274;5.880;2024-03-08T07:29:33;98228.50;;;3.83;72.08
77706;BME280;66874;45.274;5.880;2024-03-08T07:31:59;98216.41;;;3.89;71.82
77706;BME280;66874;45.274;5.880;2024-03-08T07:34:44;98229.31;;;3.94;72.09
77706;BME280;66874;45.274;5.880;2024-03-08T07:37:09;98231.88;;;3.96;72.03
77706;BME280;66874;45.274;5.880;2024-03-08T07:39:37;98225.00;;;3.95;72.16
77706;BME280;66874;45.274;5.880;2024-03-08T07:42:03;98224.09;;;3.99;72.10
77706;BME280;66874;45.274;5.880;2024-03-08T07:44:29;98228.38;;;4.06;72.19
77706;BME280;66874;45.274;5.880;2024-03-08T07:46:56;98215.38;;;4.13;72.10
77706;BME280;66874;45.274;5.880;2024-03-08T07:49:21;98217.06;;;4.19;72.17
77706;BME280;66874;45.274;5.880;2024-03-08T07:51:46;98221.31;;;4.28;72.08
77706;BME280;66874;45.274;5.880;2024-03-08T07:54:12;98212.63;;;4.35;71.96
77706;BME280;66874;45.274;5.880;2024-03-08T07:56:38;98195.28;;;4.45;71.77
77706;BME280;66874;45.274;5.880;2024-03-08T07:59:03;98195.22;;;4.54;71.83
77706;BME280;66874;45.274;5.880;2024-03-08T08:01:29;98188.28;;;4.57;71.74
77706;BME280;66874;45.274;5.880;2024-03-08T08:03:56;98197.72;;;4.63;71.61
77706;BME280;66874;45.274;5.880;2024-03-08T08:06:21;98189.88;;;4.68;71.33
77706;BME280;66874;45.274;5.880;2024-03-08T08:08:47;98187.25;;;4.74;71.30
77706;BME280;66874;45.274;5.880;2024-03-08T08:11:12;98172.44;;;4.83;71.17
77706;BME280;66874;45.274;5.880;2024-03-08T08:13:38;98177.56;;;4.91;71.21
77706;BME280;66874;45.274;5.880;2024-03-08T08:16:04;98169.72;;;4.97;71.01
77706;BME280;66874;45.274;5.880;2024-03-08T08:18:31;98165.34;;;5.02;71.00
77706;BME280;66874;45.274;5.880;2024-03-08T08:20:58;98173.06;;;5.08;70.99
77706;BME280;66874;45.274;5.880;2024-03-08T08:23:25;98164.34;;;5.16;71.10
77706;BME280;66874;45.274;5.880;2024-03-08T08:25:50;98162.56;;;5.19;70.87
77706;BME280;66874;45.274;5.880;2024-03-08T08:28:16;98161.66;;;5.23;70.55
77706;BME280;66874;45.274;5.880;2024-03-08T08:30:43;98158.09;;;5.29;70.54
77706;BME280;66874;45.274;5.880;2024-03-08T08:33:09;98149.41;;;5.33;70.36
77706;BME280;66874;45.274;5.880;2024-03-08T08:35:34;98142.47;;;5.35;70.25
77706;BME280;66874;45.274;5.880;2024-03-08T08:37:59;98145.03;;;5.36;70.17
77706;BME280;66874;45.274;5.880;2024-03-08T08:40:25;98143.13;;;5.51;70.02
77706;BME280;66874;45.274;5.880;2024-03-08T08:42:51;98135.13;;;5.64;69.71
77706;BME280;66874;45.274;5.880;2024-03-08T08:45:18;98138.53;;;5.70;69.72
77706;BME280;66874;45.274;5.880;2024-03-08T08:47:44;98130.69;;;5.74;69.56
77706;BME280;66874;45.274;5.880;2024-03-08T08:50:10;98133.28;;;5.74;69.29
77706;BME280;66874;45.274;5.880;2024-03-08T08:52:37;98127.16;;;5.78;69.35
77706;BME280;66874;45.274;5.880;2024-03-08T08:55:03;98123.59;;;5.85;69.08
77706;BME280;66874;45.274;5.880;2024-03-08T08:57:29;98123.50;;;5.92;69.02
77706;BME280;66874;45.274;5.880;2024-03-08T08:59:56;98132.59;;;6.19;68.85
77706;BME280;66874;45.274;5.880;2024-03-08T09:02:22;98141.66;;;6.47;68.50
77706;BME280;66874;45.274;5.880;2024-03-08T09:04:47;98136.84;;;6.74;68.07
77706;BME280;66874;45.274;5.880;2024-03-08T09:07:13;98133.88;;;6.94;67.66
77706;BME280;66874;45.274;5.880;2024-03-08T09:09:39;98128.41;;;7.07;67.44
77706;BME280;66874;45.274;5.880;2024-03-08T09:12:05;98115.09;;;7.23;67.17
77706;BME280;66874;45.274;5.880;2024-03-08T09:14:30;98107.66;;;7.45;66.98
77706;BME280;66874;45.274;5.880;2024-03-08T09:16:55;98094.25;;;7.63;66.74
77706;BME280;66874;45.274;5.880;2024-03-08T09:19:21;98084.50;;;7.71;66.26
77706;BME280;66874;45.274;5.880;2024-03-08T09:21:48;98080.06;;;7.76;66.25
77706;BME280;66874;45.274;5.880;2024-03-08T09:24:13;98075.66;;;7.78;66.04
77706;BME280;66874;45.274;5.880;2024-03-08T09:26:39;98065.25;;;7.78;66.05
77706;BME280;66874;45.274;5.880;2024-03-08T09:29:07;98063.31;;;7.87;65.73
77706;BME280;66874;45.274;5.880;2024-03-08T09:31:32;98049.97;;;7.99;65.54
77706;BME280;66874;45.274;5.880;2024-03-08T09:33:58;98041.00;;;8.11;65.19
77706;BME280;66874;45.274;5.880;2024-03-08T09:36:23;98035.69;;;8.15;65.09
77706;BME280;66874;45.274;5.880;2024-03-08T09:38:50;98016.78;;;8.41;64.89
77706;BME280;66874;45.274;5.880;2024-03-08T09:41:15;98024.50;;;8.77;64.55
77706;BME280;66874;45.274;5.880;2024-03-08T09:43:41;98012.41;;;9.04;63.89
77706;BME280;66874;45.274;5.880;2024-03-08T09:46:07;98009.34;;;9.18;63.46
77706;BME280;66874;45.274;5.880;2024-03-08T09:48:32;98007.69;;;9.43;63.05
77706;BME280;66874;45.274;5.880;2024-03-08T09:51:00;97986.22;;;9.62;62.56
77706;BME280;66874;45.274;5.880;2024-03-08T09:53:25;97987.28;;;9.83;61.92
77706;BME280;66874;45.274;5.880;2024-03-08T09:55:51;97989.06;;;10.07;60.66
77706;BME280;66874;45.274;5.880;2024-03-08T09:58:17;97980.00;;;10.17;59.76
77706;BME280;66874;45.274;5.880;2024-03-08T10:00:57;97971.91;;;10.25;59.11
77706;BME280;66874;45.274;5.880;2024-03-08T10:03:23;97977.97;;;10.50;58.86
77706;BME280;66874;45.274;5.880;2024-03-08T10:05:51;97981.34;;;10.78;58.73
77706;BME280;66874;45.274;5.880;2024-03-08T10:08:17;97974.94;;;11.08;58.56
77706;BME280;66874;45.274;5.880;2024-03-08T10:10:42;97962.72;;;11.31;57.84
77706;BME280;66874;45.274;5.880;2024-03-08T10:13:09;97967.66;;;11.38;57.88
77706;BME280;66874;45.274;5.880;2024-03-08T10:15:39;97969.41;;;11.60;58.06
77706;BME280;66874;45.274;5.880;2024-03-08T10:18:05;97957.97;;;11.83;57.61
77706;BME280;66874;45.274;5.880;2024-03-08T10:20:31;97959.22;;;11.74;56.58
77706;BME280;66874;45.274;5.880;2024-03-08T10:23:00;97966.19;;;11.53;56.54
77706;BME280;66874;45.274;5.880;2024-03-08T10:25:25;97979.41;;;11.50;56.57
77706;BME280;66874;45.274;5.880;2024-03-08T10:27:51;97971.91;;;11.41;56.51
77706;BME280;66874;45.274;5.880;2024-03-08T10:30:16;97961.88;;;11.30;56.05
77706;BME280;66874;45.274;5.880;2024-03-08T10:32:47;97958.34;;;11.31;56.31
77706;BME280;66874;45.274;5.880;2024-03-08T10:35:13;97949.03;;;11.46;55.95
77706;BME280;66874;45.274;5.880;2024-03-08T10:40:06;97941.41;;;11.40;55.90
77706;BME280;66874;45.274;5.880;2024-03-08T10:42:47;97942.25;;;11.18;55.63
77706;BME280;66874;45.274;5.880;2024-03-08T10:47:55;97935.72;;;10.85;56.00
77706;BME280;66874;45.274;5.880;2024-03-08T10:50:25;97937.06;;;10.73;56.32
77706;BME280;66874;45.274;5.880;2024-03-08T10:52:52;97919.06;;;10.64;56.60
77706;BME280;66874;45.274;5.880;2024-03-08T10:55:18;97919.53;;;10.51;56.33
77706;BME280;66874;45.274;5.880;2024-03-08T10:57:46;97929.66;;;10.37;56.51
77706;BME280;66874;45.274;5.880;2024-03-08T11:00:13;97928.00;;;10.35;57.04
77706;BME280;66874;45.274;5.880;2024-03-08T11:02:43;97921.94;;;10.34;56.94
77706;BME280;66874;45.274;5.880;2024-03-08T11:05:31;97921.53;;;10.20;56.74
77706;BME280;66874;45.274;5.880;2024-03-08T11:08:01;97921.06;;;10.09;56.97
77706;BME280;66874;45.274;5.880;2024-03-08T11:10:28;97918.63;;;10.04;56.96
77706;BME280;66874;45.274;5.880;2024-03-08T11:12:54;97924.13;;;9.96;56.94
77706;BME280;66874;45.274;5.880;2024-03-08T11:15:19;97919.16;;;9.89;56.73
77706;BME280;66874;45.274;5.880;2024-03-08T11:17:49;97913.38;;;9.79;56.74
77706;BME280;66874;45.274;5.880;2024-03-08T11:20:19;97920.63;;;9.71;56.46
77706;BME280;66874;45.274;5.880;2024-03-08T11:22:54;97916.16;;;9.74;56.60
77706;BME280;66874;45.274;5.880;2024-03-08T11:25:50;97900.53;;;9.98;56.53
77706;BME280;66874;45.274;5.880;2024-03-08T11:28:18;97906.59;;;10.00;56.00
77706;BME280;66874;45.274;5.880;2024-03-08T11:30:45;97898.03;;;9.95;55.84
77706;BME280;66874;45.274;5.880;2024-03-08T11:33:13;97884.88;;;9.98;55.77
77706;BME280;66874;45.274;5.880;2024-03-08T11:35:40;97884.75;;;10.01;55.72
77706;BME280;66874;45.274;5.880;2024-03-08T11:38:08;97887.16;;;10.07;55.62
77706;BME280;66874;45.274;5.880;2024-03-08T11:40:35;97884.78;;;10.24;55.54
77706;BME280;66874;45.274;5.880;2024-03-08T11:43:01;97893.13;;;10.36;55.34
77706;BME280;66874;45.274;5.880;2024-03-08T11:45:33;97881.56;;;10.41;55.32
77706;BME280;66874;45.274;5.880;2024-03-08T11:48:02;97877.78;;;10.50;54.94
77706;BME280;66874;45.274;5.880;2024-03-08T11:50:28;97874.16;;;10.52;54.65
77706;BME280;66874;45.274;5.880;2024-03-08T11:53:00;97875.34;;;10.45;54.75
77706;BME280;66874;45.274;5.880;2024-03-08T11:55:25;97879.94;;;10.39;54.65
77706;BME280;66874;45.274;5.880;2024-03-08T11:57:59;97867.91;;;10.35;54.67
77706;BME280;66874;45.274;5.880;2024-03-08T12:00:25;97867.94;;;10.33;54.67
77706;BME280;66874;45.274;5.880;2024-03-08T12:03:04;97861.84;;;10.33;54.56
77706;BME280;66874;45.274;5.880;2024-03-08T12:05:30;97867.91;;;10.35;54.79
77706;BME280;66874;45.274;5.880;2024-03-08T12:08:00;97855.72;;;10.34;54.88
77706;BME280;66874;45.274;5.880;2024-03-08T12:10:26;97849.91;;;10.25;54.96
77706;BME280;66874;45.274;5.880;2024-03-08T12:12:53;97837.09;;;10.18;55.14
77706;BME280;66874;45.274;5.880;2024-03-08T12:15:20;97838.22;;;10.11;55.36
77706;BME280;66874;45.274;5.880;2024-03-08T12:17:48;97835.63;;;10.11;55.59
77706;BME280;66874;45.274;5.880;2024-03-08T12:22:51;97810.94;;;10.19;55.62
77706;BME280;66874;45.274;5.880;2024-03-08T12:25:29;97800.22;;;10.27;55.36
77706;BME280;66874;45.274;5.880;2024-03-08T12:27:56;97786.84;;;10.35;55.76
77706;BME280;66874;45.274;5.880;2024-03-08T12:30:27;97768.19;;;10.44;55.60
77706;BME280;66874;45.274;5.880;2024-03-08T12:32:56;97774.69;;;10.56;55.63
77706;BME280;66874;45.274;5.880;2024-03-08T12:35:27;97765.50;;;10.67;55.55
77706;BME280;66874;45.274;5.880;2024-03-08T12:37:55;97760.69;;;10.79;54.91
77706;BME280;66874;45.274;5.880;2024-03-08T12:40:29;97759.19;;;11.15;55.00
77706;BME280;66874;45.274;5.880;2024-03-08T12:42:55;97756.81;;;11.50;54.44
77706;BME280;66874;45.274;5.880;2024-03-08T12:45:22;97756.63;;;11.73;54.01
77706;BME280;66874;45.274;5.880;2024-03-08T12:47:53;97749.06;;;11.88;53.73
77706;BME280;66874;45.274;5.880;2024-03-08T12:50:19;97738.63;;;11.86;53.05
77706;BME280;66874;45.274;5.880;2024-03-08T12:52:46;97738.88;;;11.80;53.30
77706;BME280;66874;45.274;5.880;2024-03-08T12:55:11;97737.97;;;11.81;53.31
77706;BME280;66874;45.274;5.880;2024-03-08T12:57:38;97741.25;;;11.86;53.25
77706;BME280;66874;45.274;5.880;2024-03-08T13:00:04;97745.72;;;11.83;53.04
77706;BME280;66874;45.274;5.880;2024-03-08T13:02:30;97747.84;;;11.74;52.87
77706;BME280;66874;45.274;5.880;2024-03-08T13:04:58;97748.28;;;11.65;53.23
77706;BME280;66874;45.274;5.880;2024-03-08T13:07:24;97748.19;;;11.67;53.25
77706;BME280;66874;45.274;5.880;2024-03-08T13:09:53;97740.75;;;11.58;53.13
77706;BME280;66874;45.274;5.880;2024-03-08T13:12:19;97745.31;;;11.53;53.25